Latest Weather Observations for Mount Crawford

IDS60901

Issued at 12:11 am CDT Friday 21 January 2022 (issued every 10 minutes, with the page automatically refreshed every 10 minutes)

About weather observations | Map of Adelaide area stations | Latest observations for Adelaide area | Other Formats
Station Details ID: 023878 Name: MOUNT CRAWFORD AWS Lat: -34.73 Lon: 138.93 Height: 525.0 m
Data from the previous 72 hours. | See also: Recent months at Mount Crawford
Date/Time
CDT
Temp
°C
App
Temp
°C
Dew
Point
°C
Rel
Hum
%
Delta-T
°C
Wind Press
QNH
hPa
Press
MSL
hPa
Rain since
9am
mm
Dir  Spd
km/h
Gust
km/h
Spd
kts
Gust
kts
21/12:00am 23.9 17.0 7.1 34 8.9 E 33 46 18 25 1020.1 1017.9 0.0
 
Date/Time
CDT
Temp
°C
App
Temp
°C
Dew
Point
°C
Rel
Hum
%
Delta-T
°C
Wind Press
QNH
hPa
Press
MSL
hPa
Rain since
9am
mm
Dir  Spd
km/h
Gust
km/h
Spd
kts
Gust
kts
20/11:30pm 24.3 17.0 7.0 33 9.2 ENE 35 52 19 28 1020.0 1017.8 0.0
20/11:08pm 24.8 17.1 7.0 32 9.5 ENE 37 56 20 30 1019.9 1017.7 0.0
20/11:00pm 24.5 17.1 6.7 32 9.5 E 35 48 19 26 1020.0 1017.8 0.0
20/10:31pm 24.8 17.9 6.5 31 9.7 E 32 52 17 28 1020.0 1017.8 0.0
20/10:30pm 24.7 17.8 6.4 31 9.7 E 32 41 17 22 1020.1 1017.9 0.0
20/10:00pm 24.6 18.3 5.9 30 9.8 E 28 43 15 23 1020.0 1017.8 0.0
20/09:30pm 25.8 18.2 5.9 28 10.5 ENE 35 54 19 29 1019.4 1017.1 0.0
20/09:00pm 26.0 18.7 5.6 27 10.7 E 33 52 18 28 1018.9 1016.7 0.0
20/08:57pm 26.0 18.7 5.6 27 10.7 E 33 52 18 28 1018.9 1016.7 0.0
20/08:30pm 26.4 19.7 5.4 26 11.0 ENE 30 43 16 23 1018.7 1016.5 0.0
20/08:04pm 26.8 19.5 4.6 24 11.5 ENE 32 54 17 29 1018.5 1016.3 0.0
20/08:00pm 26.9 19.6 4.6 24 11.6 E 32 48 17 26 1018.6 1016.4 0.0
20/07:38pm 27.4 20.0 5.1 24 11.7 E 33 52 18 28 1018.5 1016.3 0.0
20/07:30pm 27.5 19.4 5.1 24 11.8 ENE 37 54 20 29 1018.5 1016.3 0.0
20/07:18pm 27.7 19.9 4.7 23 12.0 ENE 35 54 19 29 1018.3 1016.1 0.0
20/07:00pm 27.8 19.5 4.2 22 12.2 ENE 37 52 20 28 1018.3 1016.1 0.0
20/06:30pm 28.2 19.4 3.8 21 12.6 ENE 39 57 21 31 1018.2 1016.0 0.0
20/06:00pm 28.3 19.8 3.2 20 12.8 ENE 37 57 20 31 1018.2 1016.0 0.0
20/05:30pm 28.9 20.4 3.0 19 13.2 ENE 37 56 20 30 1018.3 1016.1 0.0
20/05:00pm 28.8 19.1 2.9 19 13.2 ENE 43 61 23 33 1018.4 1016.2 0.0
20/04:30pm 29.4 20.3 4.1 20 13.2 ENE 41 61 22 33 1018.7 1016.5 0.0
20/04:00pm 28.7 20.1 4.9 22 12.6 E 39 57 21 31 1019.0 1016.8 0.0
20/03:30pm 29.1 21.4 5.2 22 12.7 ENE 35 54 19 29 1019.5 1017.2 0.0
20/03:20pm 28.8 21.2 5.6 23 12.4 E 35 61 19 33 1019.4 1017.1 0.0
20/03:18pm 28.6 20.9 5.5 23 12.3 E 35 50 19 27 1019.6 1017.3 0.0
20/03:02pm 28.1 19.3 5.6 24 12.0 ENE 41 61 22 33 1019.6 1017.3 0.0
20/03:00pm 28.4 19.8 6.5 25 11.8 ENE 41 57 22 31 1019.7 1017.4 0.0
20/02:30pm 27.8 20.0 6.6 26 11.4 E 37 63 20 34 1020.0 1017.8 0.0
20/02:00pm 27.3 18.2 6.7 27 11.1 ENE 44 67 24 36 1020.0 1017.8 0.0
20/01:30pm 28.0 18.6 7.3 27 11.3 ENE 46 74 25 40 1020.2 1018.0 0.0
20/01:01pm 26.7 17.2 6.7 28 10.8 ENE 46 65 25 35 1020.3 1018.1 0.0
20/01:00pm 27.0 17.2 6.9 28 10.9 ENE 48 65 26 35 1020.4 1018.2 0.0
20/12:30pm 26.4 16.5 6.4 28 10.7 E 48 76 26 41 1020.4 1018.2 0.0
20/12:00pm 26.2 17.3 7.7 31 10.1 ENE 44 70 24 38 1020.8 1018.6 0.0
20/11:30am 25.1 15.2 8.1 34 9.3 ENE 50 70 27 38 1020.9 1018.7 0.0
20/11:00am 24.7 15.4 10.6 41 8.0 ENE 50 78 27 42 1020.9 1018.7 0.0
20/10:30am 24.3 16.6 11.6 45 7.3 ENE 43 67 23 36 1021.3 1019.0 0.0
20/10:00am 23.4 16.7 12.4 50 6.4 ENE 39 63 21 34 1021.2 1018.9 0.0
20/09:30am 22.7 14.4 12.6 53 5.9 ENE 48 69 26 37 1021.2 1018.9 0.0
20/09:01am 21.9 16.0 13.5 59 5.0 ENE 37 59 20 32 1021.2 1018.9 0.0
20/09:00am 22.1 16.2 13.7 59 5.0 ENE 37 50 20 27 1021.3 1019.0 0.0
20/08:36am 21.5 15.7 13.9 62 4.5 ENE 37 56 20 30 1021.0 1018.8 0.0
20/08:30am 21.6 16.3 14.3 63 4.4 ENE 35 52 19 28 1021.2 1018.9 0.0
20/08:14am 21.1 16.3 14.5 66 4.0 ENE 33 56 18 30 1020.9 1018.7 0.0
20/08:00am 20.3 15.2 14.7 70 3.4 ENE 35 50 19 27 1021.0 1018.8 0.0
20/07:30am 19.3 14.7 15.0 76 2.6 ENE 33 44 18 24 1020.8 1018.6 0.0
20/07:00am 17.7 13.9 14.6 82 1.8 E 28 39 15 21 1020.9 1018.7 0.0
20/06:30am 17.4 13.5 14.5 83 1.7 E 28 39 15 21 1020.6 1018.4 0.0
20/06:00am 17.4 13.9 14.5 83 1.7 E 26 35 14 19 1020.5 1018.3 0.0
20/05:30am 17.7 14.6 14.4 81 1.9 E 24 33 13 18 1020.2 1018.0 0.0
20/05:00am 17.9 14.2 14.0 78 2.3 E 26 35 14 19 1019.8 1017.5 0.0
20/04:30am 18.4 15.1 13.9 75 2.6 E 24 33 13 18 1019.5 1017.2 0.0
20/04:00am 19.4 14.7 14.2 72 3.1 E 32 41 17 22 1019.2 1016.9 0.0
20/03:30am 19.2 14.0 13.4 69 3.4 ENE 33 43 18 23 1018.7 1016.5 0.0
20/03:00am 19.1 15.1 11.7 62 4.2 E 24 32 13 17 1018.8 1016.6 0.0
20/02:30am 19.2 15.1 10.2 56 4.9 E 22 30 12 16 1018.9 1016.7 0.0
20/02:00am 19.2 14.2 9.4 53 5.3 ESE 26 33 14 18 1018.9 1016.7 0.0
20/01:30am 18.9 14.5 9.1 53 5.3 ESE 22 28 12 15 1019.3 1017.0 0.0
20/01:00am 18.7 14.6 8.7 52 5.3 SE 20 28 11 15 1019.2 1016.9 0.0
20/12:30am 18.7 13.9 8.7 52 5.3 SE 24 32 13 17 1019.0 1016.8 0.0
20/12:00am 19.0 13.6 8.1 49 5.7 SE 26 35 14 19 1018.7 1016.5 0.0
 
Date/Time
CDT
Temp
°C
App
Temp
°C
Dew
Point
°C
Rel
Hum
%
Delta-T
°C
Wind Press
QNH
hPa
Press
MSL
hPa
Rain since
9am
mm
Dir  Spd
km/h
Gust
km/h
Spd
kts
Gust
kts
19/11:30pm 18.8 13.5 8.5 51 5.5 SSE 26 33 14 18 1018.5 1016.3 0.0
19/11:00pm 18.7 13.0 8.4 51 5.5 SSE 28 35 15 19 1018.4 1016.2 0.0
19/10:30pm 19.4 14.2 8.7 50 5.7 SSE 26 33 14 18 1018.5 1016.3 0.0
19/10:00pm 19.9 14.6 8.6 48 6.1 SSE 26 33 14 18 1018.3 1016.1 0.0
19/09:30pm 19.9 15.1 8.9 49 5.9 SSE 24 32 13 17 1018.1 1015.8 0.0
19/09:00pm 20.3 16.5 9.2 49 6.0 SSE 19 24 10 13 1018.0 1015.7 0.0
19/08:30pm 21.5 17.5 8.4 43 7.1 SE 19 28 10 15 1017.9 1015.6 0.0
19/08:00pm 23.0 18.8 7.5 37 8.3 SE 19 28 10 15 1017.7 1015.4 0.0
19/07:30pm 24.0 18.6 6.3 32 9.3 ESE 24 37 13 20 1017.4 1015.1 0.0
19/07:00pm 24.8 18.9 5.6 29 10.0 ESE 26 39 14 21 1017.3 1015.0 0.0
19/06:30pm 25.4 19.6 4.5 26 10.7 E 24 43 13 23 1017.1 1014.8 0.0
19/06:00pm 25.2 18.5 3.8 25 10.8 ESE 28 46 15 25 1016.9 1014.7 0.0
19/05:55pm 25.4 18.8 4.0 25 10.9 E 28 46 15 25 1016.9 1014.7 0.0
19/05:30pm 25.5 20.2 5.1 27 10.6 ESE 22 37 12 20 1017.2 1014.9 0.0
19/05:00pm 25.9 21.2 6.0 28 10.5 E 20 33 11 18 1017.4 1015.1 0.0
19/04:30pm 24.9 19.4 5.7 29 10.0 ESE 24 41 13 22 1017.5 1015.2 0.0
19/04:00pm 24.7 18.7 5.5 29 10.0 ESE 26 37 14 20 1017.6 1015.3 0.0
19/03:30pm 24.6 19.0 5.4 29 10.0 ESE 24 35 13 19 1017.9 1015.6 0.0
19/03:00pm 24.1 19.1 6.4 32 9.3 ESE 22 33 12 18 1018.1 1015.8 0.0
19/02:30pm 23.7 19.3 6.5 33 9.1 E 19 32 10 17 1018.3 1016.1 0.0
19/02:00pm 23.3 18.9 6.6 34 8.8 SE 19 26 10 14 1018.5 1016.3 0.0
19/01:30pm 22.5 18.2 7.1 37 8.1 ESE 19 33 10 18 1018.6 1016.4 0.0
19/01:00pm 21.4 17.0 7.3 40 7.4 ESE 20 32 11 17 1018.8 1016.6 0.0
19/12:30pm 20.5 15.3 7.2 42 7.0 ESE 24 33 13 18 1018.9 1016.7 0.0
19/12:00pm 19.6 14.5 7.7 46 6.3 ESE 24 35 13 19 1019.0 1016.8 0.0
19/11:30am 18.5 12.6 7.3 48 5.8 ESE 28 37 15 20 1019.0 1016.8 0.0
19/11:00am 17.2 10.3 7.3 52 5.1 ESE 33 44 18 24 1019.0 1016.8 0.0
19/10:30am 16.7 10.4 7.4 54 4.8 SE 30 43 16 23 1019.0 1016.8 0.0
19/10:00am 15.7 9.1 7.7 59 4.1 ESE 32 44 17 24 1018.9 1016.7 0.0
19/09:30am 14.9 8.2 7.5 61 3.8 ESE 32 46 17 25 1018.9 1016.7 0.0
19/09:00am 13.7 6.9 7.7 67 3.0 E 33 48 18 26 1018.9 1016.7 0.0
19/08:30am 12.5 5.0 7.8 73 2.4 ESE 37 48 20 26 1018.8 1016.6 0.0
19/08:00am 11.6 4.1 7.9 78 1.9 ESE 37 46 20 25 1018.6 1016.4 0.0
19/07:30am 10.5 3.3 7.6 82 1.4 ESE 35 46 19 25 1018.3 1016.1 0.0
19/07:00am 9.7 2.1 7.5 86 1.1 ESE 37 46 20 25 1018.0 1015.7 0.0
19/06:30am 9.2 1.9 7.2 87 1.0 ESE 35 44 19 24 1017.7 1015.4 0.0
19/06:00am 9.3 1.6 7.1 86 1.1 ESE 37 46 20 25 1017.5 1015.2 0.0
19/05:30am 9.5 2.2 7.1 85 1.2 ESE 35 52 19 28 1017.4 1015.1 0.0
19/05:00am 9.7 2.4 7.0 83 1.3 SE 35 48 19 26 1017.2 1014.9 0.0
19/04:30am 10.0 2.7 7.3 83 1.3 SE 35 48 19 26 1016.9 1014.7 0.0
19/04:02am 10.3 3.5 7.5 83 1.4 SE 33 52 18 28 1017.1 1014.8 0.0
19/04:00am 10.3 3.5 7.5 83 1.4 SE 33 44 18 24 1017.1 1014.8 0.0
19/03:30am 10.6 3.4 7.7 82 1.4 SE 35 50 19 27 1017.1 1014.8 0.0
19/03:00am 10.8 4.0 7.9 82 1.4 SE 33 46 18 25 1016.8 1014.6 0.0
19/02:30am 11.2 4.1 8.2 82 1.5 SE 35 52 19 28 1016.8 1014.6 0.0
19/02:00am 11.5 4.9 8.7 83 1.4 SE 33 48 18 26 1016.9 1014.7 0.0
19/01:53am 11.6 5.1 8.8 83 1.4 SE 33 52 18 28 1016.9 1014.7 0.0
19/01:30am 11.9 5.2 9.5 85 1.2 SE 35 48 19 26 1017.1 1014.8 0.0
19/01:06am 12.1 5.6 10.3 89 1.0 SE 35 54 19 29 1017.2 1014.9 0.0
19/01:00am 12.1 5.2 10.3 89 1.0 SE 37 54 20 29 1017.2 1014.9 0.0
19/12:30am 12.2 5.8 10.6 90 0.9 SSE 35 54 19 29 1017.1 1014.8 0.0
19/12:00am 12.4 6.0 10.6 89 1.0 SSE 35 56 19 30 1016.9 1014.7 0.0
 
Date/Time
CDT
Temp
°C
App
Temp
°C
Dew
Point
°C
Rel
Hum
%
Delta-T
°C
Wind Press
QNH
hPa
Press
MSL
hPa
Rain since
9am
mm
Dir  Spd
km/h
Gust
km/h
Spd
kts
Gust
kts
18/11:53pm 12.4 6.0 10.6 89 1.0 SSE 35 54 19 29 1016.7 1014.5 0.0
18/11:30pm 12.3 5.8 10.5 89 1.0 SSE 35 48 19 26 1016.6 1014.4 0.0
18/11:00pm 12.3 6.1 10.2 87 1.1 SSE 33 52 18 28 1016.5 1014.3 0.0
18/10:54pm 12.3 6.1 10.2 87 1.1 SSE 33 52 18 28 1016.7 1014.5 0.0
18/10:30pm 12.4 5.8 10.1 86 1.2 SSE 35 50 19 27 1016.6 1014.4 0.0
18/10:21pm 12.4 6.2 10.1 86 1.2 SSE 33 52 18 28 1016.7 1014.5 0.0
18/10:00pm 12.4 6.2 10.0 85 1.3 SSE 33 46 18 25 1016.5 1014.3 0.0
18/09:32pm 12.7 6.6 9.9 83 1.5 SSE 32 50 17 27 1016.7 1014.5 0.0
18/09:30pm 12.7 6.5 10.1 84 1.4 SSE 33 50 18 27 1016.6 1014.4 0.0
18/09:00pm 12.8 6.1 9.6 81 1.7 SSE 35 54 19 29 1016.2 1013.9 0.0
18/08:33pm 13.1 7.3 9.5 79 1.9 SSE 30 54 16 29 1016.6 1014.4 0.0
18/08:30pm 13.1 7.3 9.5 79 1.9 SSE 30 44 16 24 1016.5 1014.3 0.0
18/08:00pm 13.8 7.5 9.0 73 2.5 SSE 32 50 17 27 1016.0 1013.7 0.0
18/07:31pm 14.8 8.5 9.0 68 3.0 SSE 32 52 17 28 1015.3 1013.0 0.0
18/07:30pm 15.0 8.7 9.1 68 3.1 SSE 32 43 17 23 1015.3 1013.0 0.0
18/07:00pm 15.8 9.4 9.2 65 3.5 SSE 33 44 18 24 1015.2 1012.9 0.0
18/06:30pm 17.5 11.3 9.4 59 4.3 SSE 32 44 17 24 1015.2 1012.9 0.0
18/06:00pm 17.4 12.0 9.6 60 4.2 SSE 28 41 15 22 1014.8 1012.6 0.0
18/05:30pm 18.5 13.7 8.7 53 5.2 SE 24 37 13 20 1015.3 1013.0 0.0
18/05:00pm 18.2 12.4 7.9 51 5.4 SE 28 43 15 23 1015.3 1013.0 0.0
18/04:30pm 18.8 13.4 8.2 50 5.6 SE 26 39 14 21 1015.6 1013.3 0.0
18/04:00pm 19.4 14.6 7.2 45 6.4 SSE 22 39 12 21 1015.6 1013.3 0.0
18/03:30pm 19.6 13.8 8.0 47 6.1 SSE 28 44 15 24 1015.7 1013.4 0.0
18/03:00pm 20.0 14.5 6.0 40 7.1 SE 24 35 13 19 1015.7 1013.4 0.0
18/02:30pm 19.8 14.4 6.2 41 7.0 SE 24 37 13 20 1015.8 1013.5 0.0
18/02:00pm 20.1 14.9 7.1 43 6.8 SSE 24 35 13 19 1015.9 1013.6 0.0
18/01:30pm 20.2 15.2 7.9 45 6.5 SE 24 37 13 20 1016.1 1013.8 0.0
18/01:00pm 20.0 15.0 8.0 46 6.4 ESE 24 39 13 21 1016.3 1014.0 0.0
18/12:30pm 19.1 12.8 7.5 47 6.1 ESE 30 46 16 25 1016.5 1014.3 0.0
18/12:00pm 18.7 13.5 7.2 47 6.0 SE 24 39 13 21 1016.6 1014.4 0.0
18/11:30am 17.6 11.3 7.6 52 5.2 SE 30 43 16 23 1016.7 1014.5 0.0
18/11:00am 16.7 10.0 7.4 54 4.8 SE 32 48 17 26 1016.9 1014.7 0.0
18/10:30am 15.6 9.6 6.9 56 4.4 ESE 28 50 15 27 1017.3 1015.0 0.0
18/10:29am 16.0 10.0 7.2 56 4.5 ESE 28 50 15 27 1017.3 1015.0 0.0
18/10:00am 14.9 9.0 7.5 61 3.8 ESE 28 39 15 21 1017.5 1015.2 0.0
18/09:30am 14.0 6.6 6.8 62 3.6 ESE 35 48 19 26 1017.1 1014.8 0.0
18/09:02am 13.3 6.2 6.6 64 3.3 ESE 33 52 18 28 1016.7 1014.5 0.0
18/09:00am 13.4 6.5 6.5 63 3.4 ESE 32 48 17 26 1016.8 1014.6 0.0
18/08:39am 12.9 5.5 6.9 67 3.0 ESE 35 54 19 29 1016.6 1014.4 0.0
18/08:30am 12.2 4.8 6.7 69 2.7 ESE 35 52 19 28 1016.3 1014.0 0.0
18/08:00am 11.6 4.2 6.7 72 2.4 ESE 35 52 19 28 1016.2 1013.9 0.0
18/07:30am 11.4 4.6 6.7 73 2.3 ESE 32 43 17 23 1016.1 1013.8 0.0
18/07:00am 10.7 4.3 6.8 77 1.9 ESE 30 43 16 23 1016.0 1013.7 0.0
18/06:38am 10.5 3.8 7.2 80 1.6 ESE 32 50 17 27 1015.5 1013.2 0.0
18/06:30am 10.4 3.1 7.1 80 1.6 ESE 35 46 19 25 1015.5 1013.2 0.0
18/06:00am 10.5 3.9 7.9 84 1.3 ESE 32 46 17 25 1015.2 1012.9 0.0
18/05:30am 10.6 4.1 8.0 84 1.3 ESE 32 48 17 26 1014.9 1012.7 0.0
18/05:00am 11.0 5.3 8.4 84 1.3 SE 28 41 15 22 1014.7 1012.5 0.0
18/04:30am 11.0 4.9 8.2 83 1.4 SE 30 48 16 26 1014.6 1012.3 0.0
18/04:22am 11.1 5.0 8.3 83 1.4 SE 30 48 16 26 1014.4 1012.1 0.0
18/04:00am 11.0 4.9 8.2 83 1.4 SE 30 44 16 24 1014.3 1012.0 0.0
18/03:30am 11.1 4.4 8.1 82 1.5 SE 33 46 18 25 1014.2 1011.9 0.0
18/03:00am 11.1 4.4 8.3 83 1.4 SE 33 46 18 25 1014.4 1012.1 0.0
18/02:30am 11.1 4.6 8.3 83 1.4 SE 32 44 17 24 1014.5 1012.2 0.0
18/02:00am 11.3 4.8 8.3 82 1.5 SE 32 44 17 24 1014.6 1012.3 0.0
18/01:54am 11.3 4.8 8.3 82 1.5 SE 32 50 17 27 1014.6 1012.3 0.0
18/01:30am 11.6 5.2 8.6 82 1.5 SSE 32 44 17 24 1014.7 1012.5 0.0
18/01:00am 11.8 5.6 9.2 84 1.3 SSE 32 41 17 22 1014.8 1012.6 0.0
18/12:30am 11.9 5.6 9.1 83 1.4 SSE 32 43 17 23 1014.8 1012.6 0.0

Latest Capital City Observations: Canberra | Sydney | Melbourne | Brisbane | Adelaide | Perth | Hobart | Darwin

Other formats

Comma delimited format used in spreadsheet applications
http://www.bom.gov.au/fwo/IDS60901/IDS60901.94678.axf

JavaScript Object Notation format (JSON) in row-major order
http://www.bom.gov.au/fwo/IDS60901/IDS60901.94678.json

Data quality

Most of these data are generated automatically and are frequently updated. Quality checks on data are not normally performed. It is possible for incorrect values to appear. Refer to information at About Latest Weather Observations and please check the disclaimer before using these data.